Time;durP1;ratioP1;P1;durP2;ratioP2;P2;SDS_P1;SDS_P2;PMS_P1;PMS_P2;Temp;Humidity;BMP_temperature;BMP_pressure;BME280_temperature;BME280_humidity;BME280_pressure;Samples;Min_cycle;Max_cycle;Signal;HPM_P1;HPM_P2
2020/12/04 00:01:31;;;;;;;69.10;38.58;;;23.30;28.20;;;;;;6261371;27;83862;-63
2020/12/04 00:04:32;;;;;;;65.53;38.78;;;23.30;28.10;;;;;;6255062;27;83668;-62
2020/12/04 00:07:32;;;;;;;63.47;35.65;;;23.30;28.20;;;;;;6257498;27;84393;-62
2020/12/04 00:10:33;;;;;;;62.67;36.20;;;23.30;28.10;;;;;;6259279;27;83479;-62
2020/12/04 00:13:33;;;;;;;65.90;37.78;;;23.30;28.30;;;;;;6259799;27;83574;-62
2020/12/04 00:16:34;;;;;;;60.03;35.42;;;23.30;28.30;;;;;;6257276;27;83634;-62
2020/12/04 00:19:34;;;;;;;60.75;34.63;;;23.30;28.30;;;;;;6260410;27;82821;-63
2020/12/04 00:22:35;;;;;;;61.03;34.83;;;23.30;28.30;;;;;;6268204;27;83380;-62
2020/12/04 00:25:35;;;;;;;59.58;35.80;;;23.30;28.40;;;;;;6266280;27;83598;-62
2020/12/04 00:28:36;;;;;;;63.25;35.85;;;23.30;28.40;;;;;;6269206;27;83294;-63
2020/12/04 00:31:36;;;;;;;63.45;36.03;;;23.30;28.30;;;;;;6263387;27;83192;-64
2020/12/04 00:34:37;;;;;;;60.97;35.00;;;23.30;28.30;;;;;;6266716;27;84243;-64
2020/12/04 00:37:37;;;;;;;64.15;34.97;;;23.30;28.30;;;;;;6265311;27;85008;-64
2020/12/04 00:40:38;;;;;;;57.40;34.00;;;23.30;28.50;;;;;;6271294;27;83266;-64
2020/12/04 00:43:39;;;;;;;59.72;32.72;;;23.30;28.40;;;;;;6267477;27;83995;-63
2020/12/04 00:46:39;;;;;;;57.45;34.03;;;23.30;28.40;;;;;;6268378;27;83503;-63
2020/12/04 00:49:40;;;;;;;53.85;31.50;;;23.30;28.40;;;;;;6271794;27;89566;-64
2020/12/04 00:52:41;;;;;;;52.70;30.80;;;23.30;28.40;;;;;;6250991;27;85671;-63
2020/12/04 00:55:42;;;;;;;56.55;31.70;;;23.30;28.40;;;;;;6264580;27;84263;-63
2020/12/04 00:58:42;;;;;;;57.90;33.13;;;23.30;28.40;;;;;;6270277;27;85726;-63
2020/12/04 01:01:43;;;;;;;54.47;31.58;;;23.30;28.30;;;;;;6267291;27;84215;-63
2020/12/04 01:04:43;;;;;;;52.00;31.98;;;23.20;28.50;;;;;;6264465;27;82877;-64
2020/12/04 01:07:44;;;;;;;57.45;32.17;;;23.20;28.40;;;;;;6273385;27;83289;-64
2020/12/04 01:10:44;;;;;;;57.03;32.15;;;23.20;28.80;;;;;;6270393;27;83561;-64
2020/12/04 01:13:45;;;;;;;59.90;34.42;;;23.30;28.40;;;;;;6258929;27;84809;-64
2020/12/04 01:16:45;;;;;;;56.40;32.95;;;23.20;28.40;;;;;;6273814;27;83447;-65
2020/12/04 01:19:46;;;;;;;59.60;33.50;;;23.20;28.20;;;;;;6276240;27;83049;-64
2020/12/04 01:22:46;;;;;;;56.95;31.80;;;23.20;28.30;;;;;;6260591;27;85840;-64
2020/12/04 01:25:47;;;;;;;57.45;32.60;;;23.20;28.30;;;;;;6271652;27;83094;-63
2020/12/04 01:28:47;;;;;;;59.65;33.35;;;23.20;28.40;;;;;;6263636;27;82967;-64
2020/12/04 01:31:48;;;;;;;57.20;32.20;;;23.20;28.40;;;;;;6263202;27;83515;-64
2020/12/04 01:34:48;;;;;;;54.45;31.15;;;23.20;28.50;;;;;;6274547;27;83109;-64
2020/12/04 01:37:49;;;;;;;54.88;32.60;;;23.20;28.40;;;;;;6274801;27;82827;-64
2020/12/04 01:40:49;;;;;;;57.55;31.55;;;23.20;28.40;;;;;;6266329;27;83558;-63
2020/12/04 01:43:50;;;;;;;52.10;30.70;;;23.20;28.50;;;;;;6269655;27;85376;-63
2020/12/04 01:46:51;;;;;;;56.78;32.05;;;23.20;28.50;;;;;;6262278;27;83064;-63
2020/12/04 01:49:51;;;;;;;53.63;31.23;;;23.10;28.40;;;;;;6271431;27;84390;-62
2020/12/04 01:52:52;;;;;;;55.53;32.65;;;23.20;28.40;;;;;;6270739;27;83311;-62
2020/12/04 01:55:52;;;;;;;58.03;31.90;;;23.20;28.30;;;;;;6266892;27;84163;-62
2020/12/04 01:58:53;;;;;;;56.10;32.25;;;23.20;28.50;;;;;;6273290;27;83252;-62
2020/12/04 02:01:53;;;;;;;62.03;34.08;;;23.10;28.50;;;;;;6276422;27;83882;-61
2020/12/04 02:04:54;;;;;;;57.70;32.35;;;23.10;28.40;;;;;;6269606;27;85154;-62
2020/12/04 02:07:54;;;;;;;61.83;33.30;;;23.10;28.40;;;;;;6275683;27;83526;-62
2020/12/04 02:10:55;;;;;;;55.50;32.17;;;23.10;28.40;;;;;;6272944;27;84689;-63
2020/12/04 02:13:56;;;;;;;54.13;31.98;;;23.20;28.30;;;;;;6270821;27;83108;-62
2020/12/04 02:16:56;;;;;;;53.90;32.50;;;23.20;28.30;;;;;;6274462;27;83125;-63
2020/12/04 02:19:57;;;;;;;52.83;30.20;;;23.20;28.40;;;;;;6271805;27;83041;-63
2020/12/04 02:22:57;;;;;;;53.20;31.27;;;23.20;28.40;;;;;;6262049;27;83873;-64
2020/12/04 02:25:58;;;;;;;60.00;33.35;;;23.10;28.40;;;;;;6267942;27;83389;-64
2020/12/04 02:29:02;;;;;;;62.97;34.35;;;23.20;28.30;;;;;;6264736;27;85667;-63
2020/12/04 02:32:02;;;;;;;59.33;33.00;;;23.20;28.30;;;;;;6271542;27;83499;-63
2020/12/04 02:35:03;;;;;;;55.20;30.50;;;23.20;28.40;;;;;;6255584;27;85820;-63
2020/12/04 02:38:03;;;;;;;55.03;32.15;;;23.20;28.20;;;;;;6267275;27;83007;-63
2020/12/04 02:41:04;;;;;;;55.78;31.35;;;23.20;28.20;;;;;;6268821;27;84244;-63
2020/12/04 02:44:05;;;;;;;54.85;30.67;;;23.20;28.10;;;;;;6274636;27;82968;-63
2020/12/04 02:47:05;;;;;;;54.03;30.75;;;23.20;28.20;;;;;;6270856;27;83853;-64
2020/12/04 02:50:06;;;;;;;54.15;29.85;;;23.10;28.20;;;;;;6265146;27;83219;-63
2020/12/04 02:53:06;;;;;;;59.45;32.17;;;23.10;28.20;;;;;;6274375;27;83412;-64
2020/12/04 02:56:07;;;;;;;52.83;30.20;;;23.20;28.20;;;;;;6274757;27;84280;-64
2020/12/04 02:59:07;;;;;;;54.42;30.67;;;23.20;28.00;;;;;;6271353;27;83181;-63
2020/12/04 03:02:08;;;;;;;53.50;30.42;;;23.10;28.10;;;;;;6266843;27;83455;-63
2020/12/04 03:05:09;;;;;;;53.33;30.00;;;23.10;28.20;;;;;;6259081;27;84721;-63
2020/12/04 03:08:09;;;;;;;53.42;30.70;;;23.10;28.30;;;;;;6264315;27;83549;-63
2020/12/04 03:11:10;;;;;;;52.35;29.73;;;23.10;28.30;;;;;;6274068;27;83358;-62
2020/12/04 03:14:10;;;;;;;52.25;30.65;;;23.10;28.30;;;;;;6272272;27;83573;-63
2020/12/04 03:17:11;;;;;;;53.17;30.80;;;23.10;28.20;;;;;;6275250;27;83209;-63
2020/12/04 03:20:11;;;;;;;53.95;32.15;;;23.10;28.10;;;;;;6263403;27;83756;-63
2020/12/04 03:23:12;;;;;;;51.97;29.80;;;23.10;28.10;;;;;;6261811;27;83209;-63
2020/12/04 03:26:12;;;;;;;53.63;31.17;;;23.10;28.00;;;;;;6262528;27;83770;-63
2020/12/04 03:29:13;;;;;;;53.20;29.92;;;23.10;28.00;;;;;;6264512;27;87656;-62
2020/12/04 03:32:14;;;;;;;49.60;29.55;;;23.10;28.10;;;;;;6267236;27;83505;-62
2020/12/04 03:35:14;;;;;;;52.97;30.35;;;23.10;28.20;;;;;;6267527;27;83828;-61
2020/12/04 03:38:16;;;;;;;56.35;31.15;;;23.10;28.10;;;;;;6269990;27;83239;-60
2020/12/04 03:41:16;;;;;;;50.28;30.02;;;23.10;28.00;;;;;;6262783;27;83971;-61
2020/12/04 03:44:17;;;;;;;52.95;30.88;;;23.10;28.20;;;;;;6270333;27;83628;-61
2020/12/04 03:47:17;;;;;;;55.50;31.13;;;23.10;28.20;;;;;;6265503;27;83496;-61
2020/12/04 03:50:18;;;;;;;51.53;29.65;;;23.10;28.10;;;;;;6266371;27;83167;-61
2020/12/04 03:53:18;;;;;;;51.67;30.10;;;23.10;28.20;;;;;;6262610;27;83987;-62
2020/12/04 03:56:19;;;;;;;54.47;29.60;;;23.10;28.30;;;;;;6263034;27;83034;-62
2020/12/04 03:59:19;;;;;;;55.35;30.15;;;23.10;28.20;;;;;;6262433;27;84516;-62
2020/12/04 04:02:20;;;;;;;53.20;31.38;;;23.10;28.20;;;;;;6271915;27;83826;-62
2020/12/04 04:05:20;;;;;;;51.58;30.40;;;23.10;28.20;;;;;;6274225;27;85152;-63
2020/12/04 04:08:21;;;;;;;55.05;30.52;;;23.10;28.20;;;;;;6273501;27;83664;-61
2020/12/04 04:11:22;;;;;;;54.78;29.45;;;23.10;28.20;;;;;;6265993;27;83713;-63
2020/12/04 04:14:22;;;;;;;49.08;28.77;;;23.10;28.10;;;;;;6269946;27;83694;-63
2020/12/04 04:17:23;;;;;;;53.40;30.75;;;23.10;28.10;;;;;;6270931;27;83387;-63
2020/12/04 04:20:23;;;;;;;52.70;28.50;;;23.10;28.00;;;;;;6261207;27;83503;-62
2020/12/04 04:23:24;;;;;;;53.38;30.15;;;23.10;28.10;;;;;;6265153;27;83239;-62
2020/12/04 04:26:24;;;;;;;49.00;29.52;;;23.10;28.10;;;;;;6264857;27;84145;-63
2020/12/04 04:29:25;;;;;;;46.22;27.50;;;23.10;28.20;;;;;;6264842;27;83149;-63
2020/12/04 04:32:25;;;;;;;52.00;29.67;;;23.10;28.10;;;;;;6255862;27;83981;-62
2020/12/04 04:35:26;;;;;;;48.55;27.35;;;23.10;28.10;;;;;;6265590;27;83047;-62
2020/12/04 04:38:26;;;;;;;46.28;26.95;;;23.10;28.10;;;;;;6270280;27;83361;-63
2020/12/04 04:41:27;;;;;;;49.97;28.88;;;23.10;28.10;;;;;;6268946;27;83462;-62
2020/12/04 04:44:28;;;;;;;48.35;28.23;;;23.10;28.10;;;;;;6273542;27;83235;-62
2020/12/04 04:47:29;;;;;;;50.17;27.65;;;23.10;28.00;;;;;;6262989;27;83244;-61
2020/12/04 04:50:29;;;;;;;44.40;27.75;;;23.20;28.10;;;;;;6266840;27;84097;-62
2020/12/04 04:53:30;;;;;;;41.28;26.25;;;23.10;28.10;;;;;;6273789;27;83242;-62
2020/12/04 04:56:30;;;;;;;43.28;26.13;;;23.10;28.20;;;;;;6275978;27;82952;-62
2020/12/04 04:59:31;;;;;;;40.90;25.75;;;23.10;28.20;;;;;;6275834;27;86005;-62
2020/12/04 05:02:31;;;;;;;44.97;25.92;;;23.10;28.20;;;;;;6275297;27;82945;-62
2020/12/04 05:05:32;;;;;;;48.90;27.05;;;23.10;28.20;;;;;;6274678;27;83820;-62
2020/12/04 05:08:32;;;;;;;44.38;26.40;;;23.10;28.30;;;;;;6265409;27;83102;-62
2020/12/04 05:11:33;;;;;;;45.22;26.17;;;23.10;28.20;;;;;;6269627;27;83220;-62
2020/12/04 05:14:34;;;;;;;41.75;24.70;;;23.10;28.20;;;;;;6272950;27;86214;-61
2020/12/04 05:17:34;;;;;;;41.75;23.80;;;23.10;28.30;;;;;;6274069;27;83425;-61
2020/12/04 05:20:35;;;;;;;40.45;24.42;;;23.10;28.40;;;;;;6270828;27;83398;-62
2020/12/04 05:23:35;;;;;;;44.13;24.80;;;23.10;28.30;;;;;;6274617;27;83992;-61
2020/12/04 05:26:36;;;;;;;41.20;24.13;;;23.10;28.20;;;;;;6274045;27;83552;-61
2020/12/04 05:29:36;;;;;;;44.42;24.73;;;23.10;28.20;;;;;;6274615;27;83243;-61
2020/12/04 05:32:37;;;;;;;40.65;23.65;;;23.10;28.30;;;;;;6275655;27;83370;-62
2020/12/04 05:35:38;;;;;;;41.15;24.08;;;23.10;28.40;;;;;;6273299;27;83282;-61
2020/12/04 05:38:38;;;;;;;39.17;23.83;;;23.10;28.30;;;;;;6272668;27;83813;-62
2020/12/04 05:41:39;;;;;;;40.63;23.95;;;23.10;28.20;;;;;;6274636;27;83913;-62
2020/12/04 05:44:39;;;;;;;40.40;23.95;;;23.10;28.30;;;;;;6274003;27;85686;-62
2020/12/04 05:47:40;;;;;;;44.10;24.10;;;23.10;28.20;;;;;;6275371;27;86069;-61
2020/12/04 05:50:40;;;;;;;37.58;23.08;;;23.10;28.20;;;;;;6273910;27;82926;-60
2020/12/04 05:53:41;;;;;;;36.50;21.23;;;23.10;28.20;;;;;;6266016;27;83146;-61
2020/12/04 05:56:41;;;;;;;39.83;23.35;;;23.10;28.10;;;;;;6262666;27;83643;-62
2020/12/04 05:59:42;;;;;;;36.55;22.67;;;23.10;28.30;;;;;;6272248;27;83179;-62
2020/12/04 06:02:42;;;;;;;39.83;23.40;;;23.20;28.50;;;;;;6258848;27;83752;-60
2020/12/04 06:05:43;;;;;;;34.17;20.77;;;23.20;28.60;;;;;;6265896;27;84440;-62
2020/12/04 06:08:43;;;;;;;35.75;21.85;;;23.20;30.30;;;;;;6252435;27;83234;-65
2020/12/04 06:11:44;;;;;;;37.75;23.38;;;23.20;28.80;;;;;;6266819;27;83373;-63
2020/12/04 06:14:45;;;;;;;38.95;22.75;;;23.20;29.10;;;;;;6271028;27;83702;-64
2020/12/04 06:17:45;;;;;;;35.65;23.35;;;23.20;29.90;;;;;;6271004;27;83283;-63
2020/12/04 06:20:46;;;;;;;37.67;21.48;;;23.20;30.00;;;;;;6274072;27;85914;-64
2020/12/04 06:23:47;;;;;;;39.03;22.25;;;23.30;30.40;;;;;;6270319;27;83340;-63
2020/12/04 06:26:49;;;;;;;36.67;21.02;;;23.30;30.70;;;;;;6275499;27;86511;-63
2020/12/04 06:29:49;;;;;;;36.67;21.05;;;23.30;31.50;;;;;;6249478;27;83298;-64
2020/12/04 06:32:50;;;;;;;38.92;22.23;;;23.40;32.20;;;;;;6273712;27;84859;-62
2020/12/04 06:35:51;;;;;;;33.10;19.63;;;23.40;32.30;;;;;;6260527;27;88975;-62
2020/12/04 06:38:51;;;;;;;37.55;20.27;;;23.40;33.00;;;;;;6267575;27;83437;-61
2020/12/04 06:41:52;;;;;;;36.80;20.38;;;23.40;32.60;;;;;;6274382;27;84539;-62
2020/12/04 06:44:52;;;;;;;35.15;21.00;;;23.50;33.10;;;;;;6258450;27;84012;-63
2020/12/04 06:47:53;;;;;;;47.05;20.95;;;23.50;32.90;;;;;;6275265;27;83125;-62
2020/12/04 06:50:53;;;;;;;38.25;21.10;;;23.50;32.80;;;;;;6271001;27;83436;-63
2020/12/04 06:53:54;;;;;;;35.08;19.13;;;23.50;32.70;;;;;;6274214;27;83506;-61
2020/12/04 06:56:55;;;;;;;34.08;20.02;;;23.50;32.80;;;;;;6275576;27;85593;-64
2020/12/04 06:59:55;;;;;;;36.45;21.58;;;23.40;32.50;;;;;;6274346;27;83870;-64
2020/12/04 07:02:56;;;;;;;36.72;21.17;;;23.40;32.10;;;;;;6261342;27;86787;-63
2020/12/04 07:05:56;;;;;;;37.72;21.55;;;23.40;31.90;;;;;;6248518;27;84056;-64
2020/12/04 07:08:57;;;;;;;43.08;21.58;;;23.30;31.50;;;;;;6262464;27;84093;-62
2020/12/04 07:11:57;;;;;;;39.30;21.52;;;23.30;31.40;;;;;;6267311;27;83362;-63
2020/12/04 07:14:58;;;;;;;37.55;22.15;;;23.30;31.30;;;;;;6258609;27;82991;-64
2020/12/04 07:17:58;;;;;;;32.05;19.83;;;23.20;31.30;;;;;;6274341;27;83408;-62
2020/12/04 07:20:59;;;;;;;41.30;21.33;;;23.20;31.80;;;;;;6273029;27;83222;-65
2020/12/04 07:24:00;;;;;;;36.58;21.63;;;23.20;31.60;;;;;;6273224;27;84365;-61
2020/12/04 07:27:00;;;;;;;38.50;21.45;;;23.30;31.50;;;;;;6268319;27;85161;-64
2020/12/04 07:30:01;;;;;;;33.00;19.77;;;23.20;31.30;;;;;;6273097;27;86971;-64
2020/12/04 07:33:01;;;;;;;35.90;19.75;;;23.20;31.70;;;;;;6267641;27;83403;-64
2020/12/04 07:36:02;;;;;;;34.58;20.10;;;23.20;31.40;;;;;;6262060;27;83340;-63
2020/12/04 07:39:02;;;;;;;31.15;17.42;;;23.20;31.20;;;;;;6256150;27;83843;-66
2020/12/04 07:42:03;;;;;;;25.65;15.23;;;23.30;31.80;;;;;;6263067;27;83308;-64
2020/12/04 07:45:04;;;;;;;22.48;13.45;;;23.30;32.90;;;;;;6271532;27;83591;-63
2020/12/04 07:48:04;;;;;;;26.48;13.18;;;23.30;33.90;;;;;;6271624;27;83026;-64
2020/12/04 07:51:05;;;;;;;18.90;11.73;;;23.30;34.60;;;;;;6274352;27;83320;-64
2020/12/04 07:54:06;;;;;;;15.82;10.05;;;23.30;35.40;;;;;;6264170;27;83873;-65
2020/12/04 07:57:06;;;;;;;16.88;9.70;;;23.20;36.40;;;;;;6263290;27;83103;-67
2020/12/04 08:00:07;;;;;;;15.70;8.77;;;23.20;36.50;;;;;;6274707;27;82962;-65
2020/12/04 08:03:11;;;;;;;17.77;9.85;;;23.20;37.30;;;;;;6262706;27;83721;-60
2020/12/04 08:06:12;;;;;;;16.48;9.63;;;23.20;37.30;;;;;;6275076;27;85501;-66
2020/12/04 08:09:13;;;;;;;13.90;8.32;;;23.20;37.10;;;;;;6272514;27;81348;-63
2020/12/04 08:12:13;;;;;;;15.75;8.52;;;23.20;37.10;;;;;;6267355;27;82227;-61
2020/12/04 08:15:14;;;;;;;19.75;9.13;;;23.20;36.60;;;;;;6262634;27;81161;-68
2020/12/04 08:18:14;;;;;;;15.57;8.85;;;23.20;36.20;;;;;;6271579;27;80429;-67
2020/12/04 08:21:15;;;;;;;14.98;7.47;;;23.20;35.90;;;;;;6272138;27;81176;-65
2020/12/04 08:24:15;;;;;;;15.88;7.70;;;23.20;35.30;;;;;;6273182;27;80328;-66
2020/12/04 08:27:17;;;;;;;11.38;7.53;;;23.20;35.10;;;;;;6275655;27;81415;-65
2020/12/04 08:30:18;;;;;;;11.13;6.65;;;23.20;34.70;;;;;;6274570;27;81551;-65
2020/12/04 08:33:18;;;;;;;13.77;6.90;;;23.20;34.50;;;;;;6275224;27;80502;-67
2020/12/04 08:36:19;;;;;;;15.15;6.72;;;23.20;34.30;;;;;;6273271;27;80983;-65
2020/12/04 08:39:19;;;;;;;10.43;6.82;;;23.20;34.30;;;;;;6270319;27;80690;-69
2020/12/04 08:42:20;;;;;;;12.23;6.82;;;23.20;34.20;;;;;;6271442;27;80666;-67
2020/12/04 08:45:21;;;;;;;10.60;6.38;;;23.20;34.30;;;;;;6275124;27;86032;-67
2020/12/04 08:48:21;;;;;;;9.68;5.90;;;23.20;34.20;;;;;;6272155;27;83837;-65
2020/12/04 08:51:22;;;;;;;10.80;6.78;;;23.20;34.10;;;;;;6270649;27;80931;-66
2020/12/04 08:54:22;;;;;;;10.68;5.95;;;23.20;34.00;;;;;;6270289;27;80927;-65
2020/12/04 08:57:23;;;;;;;9.35;5.82;;;23.20;33.80;;;;;;6273493;27;81332;-66
2020/12/04 09:00:28;;;;;;;11.75;6.20;;;23.20;33.50;;;;;;6268185;27;80636;-70
2020/12/04 09:03:30;;;;;;;10.18;6.85;;;23.20;33.60;;;;;;6257142;27;80797;-68
2020/12/04 09:06:31;;;;;;;10.38;6.18;;;23.20;33.40;;;;;;6257944;27;82496;-68
2020/12/04 09:09:31;;;;;;;10.32;6.68;;;23.20;33.50;;;;;;6260258;27;81414;-71
2020/12/04 09:12:32;;;;;;;8.20;5.75;;;23.20;33.50;;;;;;6256510;27;80591;-67
2020/12/04 09:15:32;;;;;;;10.68;6.88;;;23.20;33.60;;;;;;6263404;27;80584;-69
2020/12/04 09:18:33;;;;;;;13.02;7.43;;;23.20;33.50;;;;;;6271532;27;81622;-68
2020/12/04 09:21:34;;;;;;;15.65;7.97;;;23.20;33.50;;;;;;6246661;27;81706;-66
2020/12/04 09:24:34;;;;;;;14.02;7.80;;;23.20;33.30;;;;;;6271028;27;80433;-67
2020/12/04 09:27:35;;;;;;;11.75;6.60;;;23.30;33.50;;;;;;6262735;27;80643;-67
2020/12/04 09:30:35;;;;;;;10.70;6.63;;;23.30;33.30;;;;;;6260678;27;81661;-68
2020/12/04 09:33:36;;;;;;;11.77;7.25;;;23.30;33.20;;;;;;6273189;27;80932;-63
2020/12/04 09:36:36;;;;;;;11.48;6.93;;;23.30;33.30;;;;;;6277700;27;80855;-63
2020/12/04 09:39:38;;;;;;;9.75;6.75;;;23.30;33.10;;;;;;6276604;27;80735;-64
2020/12/04 09:42:39;;;;;;;10.00;6.55;;;23.40;33.10;;;;;;6275798;27;80520;-63
2020/12/04 09:45:39;;;;;;;9.18;6.38;;;23.40;33.10;;;;;;6282262;27;80123;-63
2020/12/04 09:48:40;;;;;;;11.63;6.63;;;23.40;33.00;;;;;;6266748;27;81889;-63
2020/12/04 09:51:40;;;;;;;11.95;6.57;;;23.40;33.00;;;;;;6279465;27;81013;-63
2020/12/04 09:54:41;;;;;;;13.35;6.70;;;23.40;32.80;;;;;;6277631;27;81686;-66
2020/12/04 09:57:42;;;;;;;11.10;6.22;;;23.40;32.70;;;;;;6276257;27;81747;-64
2020/12/04 10:00:42;;;;;;;9.57;6.03;;;23.40;32.80;;;;;;6274677;27;80488;-64
2020/12/04 10:03:43;;;;;;;11.60;6.05;;;23.40;32.80;;;;;;6270793;27;81807;-63
2020/12/04 10:06:44;;;;;;;10.80;5.63;;;23.40;32.70;;;;;;6276255;27;80596;-64
2020/12/04 10:09:45;;;;;;;7.85;5.13;;;23.50;32.70;;;;;;6278294;27;80759;-63
2020/12/04 10:12:45;;;;;;;9.70;5.22;;;23.40;32.60;;;;;;6272102;27;80623;-63
2020/12/04 10:15:46;;;;;;;9.65;5.07;;;23.50;32.60;;;;;;6268437;27;83122;-63
2020/12/04 10:18:46;;;;;;;7.78;4.85;;;23.60;32.80;;;;;;6278382;27;82198;-64
2020/12/04 10:21:47;;;;;;;8.63;4.80;;;23.60;32.80;;;;;;6276933;27;81564;-63
2020/12/04 10:24:47;;;;;;;8.55;4.90;;;23.70;32.80;;;;;;6277542;27;80418;-64
2020/12/04 10:27:48;;;;;;;7.43;4.35;;;23.80;32.90;;;;;;6265150;27;81868;-65
2020/12/04 10:30:48;;;;;;;7.43;4.80;;;23.90;33.80;;;;;;6258614;27;82383;-64
2020/12/04 10:33:49;;;;;;;5.93;3.90;;;24.00;33.50;;;;;;6266500;27;80162;-64
2020/12/04 10:36:50;;;;;;;7.07;3.60;;;24.00;33.90;;;;;;6265507;27;80960;-65
2020/12/04 10:39:50;;;;;;;5.75;3.63;;;24.20;33.80;;;;;;6266845;27;80544;-64
2020/12/04 10:42:51;;;;;;;4.78;2.88;;;24.30;34.00;;;;;;6270333;27;83465;-64
2020/12/04 10:45:51;;;;;;;5.22;3.10;;;24.30;34.00;;;;;;6275388;27;81696;-63
2020/12/04 10:48:52;;;;;;;4.70;2.85;;;24.40;34.10;;;;;;6275175;27;80428;-65
2020/12/04 10:51:53;;;;;;;3.92;2.42;;;24.40;34.40;;;;;;6277333;27;82112;-65
2020/12/04 10:54:53;;;;;;;9.50;2.30;;;24.50;34.40;;;;;;6264791;27;80380;-65
2020/12/04 10:57:54;;;;;;;4.15;2.22;;;24.50;34.20;;;;;;6276318;27;80562;-65
2020/12/04 11:00:55;;;;;;;3.38;2.08;;;24.60;34.00;;;;;;6261400;27;80557;-65
2020/12/04 11:06:56;;;;;;;3.38;1.92;;;24.80;34.10;;;;;;6272343;27;81345;-64
2020/12/04 11:09:57;;;;;;;4.65;1.75;;;24.90;34.50;;;;;;6276168;27;80990;-63
2020/12/04 11:12:57;;;;;;;4.15;2.35;;;25.00;34.80;;;;;;6276809;27;80994;-64
2020/12/04 11:15:58;;;;;;;3.42;2.33;;;25.00;35.10;;;;;;6275747;27;80664;-63
2020/12/04 11:18:58;;;;;;;4.57;2.70;;;25.10;35.40;;;;;;6268686;27;81056;-63
2020/12/04 11:21:59;;;;;;;2.00;1.77;;;25.10;35.70;;;;;;6264174;27;82966;-65
2020/12/04 11:25:00;;;;;;;4.43;2.00;;;25.10;35.80;;;;;;6263373;27;81394;-64
2020/12/04 11:28:00;;;;;;;2.97;2.17;;;25.10;35.90;;;;;;6263790;27;80411;-64
2020/12/04 11:31:01;;;;;;;3.53;2.40;;;25.20;35.90;;;;;;6270287;27;81527;-65
2020/12/04 11:34:01;;;;;;;3.00;2.20;;;25.30;36.00;;;;;;6275558;27;80513;-65
2020/12/04 11:37:02;;;;;;;3.58;2.13;;;25.30;35.80;;;;;;6258420;27;80986;-63
2020/12/04 11:40:02;;;;;;;4.65;2.17;;;25.30;35.60;;;;;;6270963;27;81664;-63
2020/12/04 11:43:03;;;;;;;2.05;1.50;;;25.20;35.60;;;;;;6268991;27;80539;-63
2020/12/04 11:46:04;;;;;;;2.17;1.70;;;25.10;35.50;;;;;;6261122;27;90080;-63
2020/12/04 11:49:04;;;;;;;3.83;1.58;;;25.10;35.80;;;;;;6275279;27;80838;-63
2020/12/04 11:52:05;;;;;;;2.40;1.52;;;25.00;35.60;;;;;;6271858;27;81090;-64
2020/12/04 11:55:05;;;;;;;2.05;1.55;;;25.00;35.50;;;;;;6268386;27;80502;-64
2020/12/04 11:58:06;;;;;;;2.33;1.65;;;24.90;35.70;;;;;;6275111;27;80292;-65
2020/12/04 12:01:07;;;;;;;3.00;1.48;;;24.90;35.60;;;;;;6275413;27;81475;-63
2020/12/04 12:04:07;;;;;;;3.83;2.00;;;24.90;35.40;;;;;;6276186;27;81016;-64
2020/12/04 12:07:08;;;;;;;2.55;1.98;;;24.90;35.20;;;;;;6276226;27;80821;-64
2020/12/04 12:10:08;;;;;;;2.95;2.22;;;24.80;35.20;;;;;;6260585;27;81857;-67
2020/12/04 12:13:09;;;;;;;2.95;2.13;;;24.80;35.20;;;;;;6263360;27;81382;-67
2020/12/04 12:16:09;;;;;;;3.65;2.55;;;24.80;35.30;;;;;;6262992;27;81572;-67
2020/12/04 12:19:10;;;;;;;6.55;2.38;;;24.80;35.30;;;;;;6270846;27;83905;-67
2020/12/04 12:22:11;;;;;;;3.92;2.10;;;24.80;35.00;;;;;;6271008;27;80781;-66
2020/12/04 12:25:11;;;;;;;7.22;2.72;;;24.80;34.80;;;;;;6265105;27;80803;-66
2020/12/04 12:28:12;;;;;;;3.17;2.45;;;24.80;34.80;;;;;;6269161;27;81566;-66
2020/12/04 12:31:12;;;;;;;6.05;3.25;;;24.80;34.40;;;;;;6270016;27;80404;-66
2020/12/04 12:34:13;;;;;;;4.28;3.05;;;24.80;34.50;;;;;;6269369;27;81553;-67
2020/12/04 12:37:14;;;;;;;4.43;3.28;;;24.80;34.40;;;;;;6268437;27;88526;-66
2020/12/04 12:40:14;;;;;;;5.15;3.70;;;24.80;33.90;;;;;;6266003;27;81089;-67
2020/12/04 12:43:15;;;;;;;4.35;3.35;;;24.90;33.90;;;;;;6270398;27;80465;-67
2020/12/04 12:46:15;;;;;;;6.90;4.05;;;24.90;33.90;;;;;;6267023;27;82774;-66
2020/12/04 12:49:16;;;;;;;8.52;4.05;;;24.90;33.80;;;;;;6264488;27;80442;-66
2020/12/04 12:52:16;;;;;;;4.80;3.33;;;24.90;33.50;;;;;;6267455;27;80716;-67
2020/12/04 12:55:17;;;;;;;6.70;4.50;;;24.90;33.70;;;;;;6268436;27;81611;-67
2020/12/04 12:58:18;;;;;;;6.00;3.92;;;25.00;34.30;;;;;;6261293;27;80971;-67
2020/12/04 13:01:18;;;;;;;6.55;4.40;;;25.00;34.20;;;;;;6265786;27;80905;-67
2020/12/04 13:04:19;;;;;;;6.97;4.22;;;25.00;34.30;;;;;;6261471;27;82318;-67
2020/12/04 13:07:19;;;;;;;7.18;4.20;;;25.00;33.80;;;;;;6261445;27;82446;-67
2020/12/04 13:10:20;;;;;;;6.75;4.40;;;25.00;33.80;;;;;;6269159;27;81721;-67
2020/12/04 13:13:20;;;;;;;8.95;4.55;;;25.00;33.60;;;;;;6263097;27;81306;-67
2020/12/04 13:16:21;;;;;;;5.55;3.92;;;25.10;33.60;;;;;;6271317;27;80941;-68
2020/12/04 13:19:21;;;;;;;5.65;4.05;;;25.10;33.80;;;;;;6257720;27;82061;-71
2020/12/04 13:22:22;;;;;;;6.25;3.97;;;25.10;33.70;;;;;;6268134;27;80706;-69
2020/12/04 13:25:23;;;;;;;8.05;4.40;;;25.10;33.60;;;;;;6267595;27;82093;-69
2020/12/04 13:28:23;;;;;;;6.35;4.25;;;25.10;33.50;;;;;;6261760;27;80674;-65
2020/12/04 13:31:24;;;;;;;8.43;4.07;;;25.10;33.40;;;;;;6271537;27;83580;-67
2020/12/04 13:34:24;;;;;;;7.32;4.60;;;25.10;33.30;;;;;;6276740;27;80751;-63
2020/12/04 13:37:25;;;;;;;6.07;4.47;;;25.00;33.20;;;;;;6269256;27;80854;-63
2020/12/04 13:40:26;;;;;;;7.30;4.88;;;25.00;33.20;;;;;;6276804;27;81828;-63
2020/12/04 13:43:26;;;;;;;7.25;4.32;;;25.00;33.40;;;;;;6272426;27;83305;-63
2020/12/04 13:46:27;;;;;;;5.20;3.53;;;25.00;33.40;;;;;;6275580;27;81264;-62
2020/12/04 13:49:28;;;;;;;7.47;4.55;;;25.00;33.70;;;;;;6269906;27;80723;-63
2020/12/04 13:52:28;;;;;;;6.28;3.92;;;25.00;33.80;;;;;;6276588;27;80831;-62
2020/12/04 13:55:29;;;;;;;7.05;3.97;;;24.90;34.10;;;;;;6266523;27;80288;-62
2020/12/04 13:58:29;;;;;;;5.80;3.50;;;24.90;34.10;;;;;;6270628;27;80302;-64
2020/12/04 14:01:30;;;;;;;5.18;3.75;;;24.80;33.80;;;;;;6274586;27;82150;-61
2020/12/04 14:04:30;;;;;;;4.30;3.17;;;24.80;34.00;;;;;;6271537;27;80563;-61
2020/12/04 14:07:31;;;;;;;7.18;3.88;;;24.70;34.10;;;;;;6276812;27;80882;-61
2020/12/04 14:10:32;;;;;;;9.80;4.25;;;24.70;34.60;;;;;;6275663;27;81102;-62
2020/12/04 14:13:32;;;;;;;7.43;3.85;;;24.60;33.90;;;;;;6274940;27;81232;-62
2020/12/04 14:16:33;;;;;;;6.10;3.83;;;24.60;34.00;;;;;;6279363;27;81111;-62
2020/12/04 14:19:33;;;;;;;6.53;4.07;;;24.50;34.10;;;;;;6272046;27;81877;-62
2020/12/04 14:22:34;;;;;;;10.50;3.88;;;24.50;34.50;;;;;;6268462;27;81641;-61
2020/12/04 14:25:34;;;;;;;9.40;4.45;;;24.40;34.20;;;;;;6255133;27;81063;-62
2020/12/04 14:28:35;;;;;;;10.10;4.28;;;24.40;34.40;;;;;;6277877;27;80486;-61
2020/12/04 14:31:36;;;;;;;13.82;4.80;;;24.40;34.90;;;;;;6277164;27;81779;-61
2020/12/04 14:34:38;;;;;;;10.98;4.93;;;24.40;34.80;;;;;;6277033;27;81156;-62
2020/12/04 14:37:38;;;;;;;14.00;4.75;;;24.40;35.00;;;;;;6279207;27;80739;-61
2020/12/04 14:40:39;;;;;;;15.07;4.82;;;24.30;35.10;;;;;;6277522;27;81540;-62
2020/12/04 14:43:39;;;;;;;17.08;4.60;;;24.30;34.70;;;;;;6278698;27;80321;-62
2020/12/04 14:46:40;;;;;;;8.38;5.00;;;24.20;34.70;;;;;;6265804;27;80490;-61
2020/12/04 14:49:42;;;;;;;7.97;4.65;;;24.20;34.80;;;;;;6275091;27;87895;-49
2020/12/04 14:52:42;;;;;;;12.80;4.55;;;24.20;35.20;;;;;;6275345;27;80810;-60
2020/12/04 14:55:43;;;;;;;7.88;4.97;;;24.10;34.70;;;;;;6277426;27;81330;-61
2020/12/04 14:58:43;;;;;;;12.57;5.03;;;24.20;34.30;;;;;;6263075;27;80962;-64
2020/12/04 15:01:44;;;;;;;9.93;4.38;;;24.20;34.90;;;;;;6268058;27;80294;-64
2020/12/04 15:04:44;;;;;;;8.07;4.63;;;24.20;35.20;;;;;;6273150;27;80722;-67
2020/12/04 15:07:45;;;;;;;8.35;4.68;;;24.20;35.40;;;;;;6266799;27;81439;-64
2020/12/04 15:10:49;;;;;;;10.00;4.78;;;24.20;35.50;;;;;;6273239;27;84371;-66
2020/12/04 15:13:49;;;;;;;9.65;5.43;;;24.10;35.50;;;;;;6266841;27;81047;-64
2020/12/04 15:16:50;;;;;;;8.18;5.05;;;24.10;35.60;;;;;;6268421;27;80759;-65
2020/12/04 15:19:51;;;;;;;8.23;4.68;;;24.00;35.80;;;;;;6262036;27;82204;-67
2020/12/04 15:22:52;;;;;;;7.95;4.95;;;24.00;35.80;;;;;;6275032;27;82955;-65
2020/12/04 15:25:52;;;;;;;12.35;5.45;;;24.00;35.70;;;;;;6270452;27;81514;-65
2020/12/04 15:28:53;;;;;;;9.23;5.18;;;24.00;35.80;;;;;;6272374;27;81653;-65